createdAt,value
2018-12-21T00:00:08.999Z,-4.4
2018-12-21T00:00:59.330Z,-4.4
2018-12-21T00:01:49.114Z,-4.4
2018-12-21T00:32:30.960Z,-4.4
2018-12-21T00:33:21.603Z,-4.4
2018-12-21T00:34:11.059Z,-4.4
2018-12-21T00:35:01.379Z,-4.4
2018-12-21T00:35:51.176Z,-4.4
2018-12-21T00:36:41.218Z,-4.4
2018-12-21T00:37:31.540Z,-4.4
2018-12-21T00:38:21.337Z,-4.4
2018-12-21T00:39:11.670Z,-4.4
2018-12-21T00:40:01.432Z,-4.4
2018-12-21T00:40:51.772Z,-4.4
2018-12-21T00:41:41.557Z,-4.4
2018-12-21T00:42:31.607Z,-4.4
2018-12-21T00:43:21.711Z,-4.4
2018-12-21T00:44:12.001Z,-4.4
2018-12-21T00:45:01.490Z,-4.4
2018-12-21T00:45:51.821Z,-4.4
2018-12-21T00:46:41.889Z,-4.4
2018-12-21T00:47:32.232Z,-4.4
2018-12-21T00:48:22.244Z,-4.4
2018-12-21T00:49:12.051Z,-4.4
2018-12-21T00:50:02.394Z,-4.4
2018-12-21T00:50:52.449Z,-4.4
2018-12-21T00:51:42.496Z,-4.4
2018-12-21T00:52:32.558Z,-4.4
2018-12-21T00:53:22.451Z,-4.4
2018-12-21T00:54:12.399Z,-4.4
2018-12-21T00:55:02.468Z,-4.4
2018-12-21T00:55:51.963Z,-4.4
2018-12-21T00:56:42.573Z,-4.4
2018-12-21T00:57:32.907Z,-4.4
2018-12-21T00:58:22.972Z,-4.4
2018-12-21T00:59:13.026Z,-4.4
2018-12-21T01:00:02.816Z,-4.4
2018-12-21T01:00:53.131Z,-4.4
2018-12-21T01:01:43.190Z,-4.4
2018-12-21T01:02:32.963Z,-4.4
2018-12-21T01:03:23.338Z,-4.5
2018-12-21T01:04:12.823Z,-4.5
2018-12-21T01:05:03.168Z,-4.5
2018-12-21T01:05:53.203Z,-4.5
2018-12-21T01:06:43.522Z,-4.5
2018-12-21T01:07:33.587Z,-4.5
2018-12-21T01:08:23.640Z,-4.5
2018-12-21T01:09:13.420Z,-4.5
2018-12-21T01:10:03.782Z,-4.5
2018-12-21T01:10:53.806Z,-4.5
2018-12-21T01:11:43.605Z,-4.5
2018-12-21T01:12:33.735Z,-4.5
2018-12-21T01:13:23.977Z,-4.5
2018-12-21T01:14:13.562Z,-4.5
2018-12-21T01:15:03.557Z,-4.5
2018-12-21T01:15:53.117Z,-4.5
2018-12-21T01:16:43.741Z,-4.5
2018-12-21T01:17:33.792Z,-4.5
2018-12-21T01:18:23.662Z,-4.5
2018-12-21T01:19:13.736Z,-4.5
2018-12-21T01:20:03.429Z,-4.5
2018-12-21T01:20:54.013Z,-4.5
2018-12-21T01:21:44.068Z,-4.5
2018-12-21T01:22:34.124Z,-4.5
2018-12-21T01:23:24.191Z,-4.5
2018-12-21T01:24:14.235Z,-4.6
2018-12-21T01:25:04.273Z,-4.6
2018-12-21T01:25:54.836Z,-4.6
2018-12-21T01:26:44.411Z,-4.6
2018-12-21T01:27:34.956Z,-4.6
2018-12-21T01:28:24.731Z,-4.6
2018-12-21T01:29:14.753Z,-4.6
2018-12-21T01:30:05.124Z,-4.6
2018-12-21T01:30:55.173Z,-4.6
2018-12-21T01:31:45.255Z,-4.6
2018-12-21T01:32:34.742Z,-4.6
2018-12-21T01:33:25.076Z,-4.6
2018-12-21T01:34:15.408Z,-4.6
2018-12-21T01:35:05.463Z,-4.6
2018-12-21T01:35:55.510Z,-4.6
2018-12-21T01:36:45.582Z,-4.6
2018-12-21T01:37:35.743Z,-4.6
2018-12-21T01:38:25.678Z,-4.6
2018-12-21T01:39:16.038Z,-4.6
2018-12-21T01:40:05.546Z,-4.6
2018-12-21T01:40:55.575Z,-4.6
2018-12-21T01:41:45.633Z,-4.6
2018-12-21T01:42:35.978Z,-4.6
2018-12-21T01:43:25.753Z,-4.6
2018-12-21T01:44:16.063Z,-4.6
2018-12-21T01:45:06.386Z,-4.6
2018-12-21T01:45:55.932Z,-4.6
2018-12-21T01:46:45.696Z,-4.6
2018-12-21T01:47:36.053Z,-4.6
2018-12-21T01:48:26.100Z,-4.6
2018-12-21T01:49:16.420Z,-4.6
2018-12-21T01:50:06.526Z,-4.6
2018-12-21T01:50:56.545Z,-4.6
2018-12-21T01:51:49.068Z,-4.6
2018-12-21T01:52:36.373Z,-4.7
2018-12-21T01:53:26.703Z,-4.7
2018-12-21T01:54:17.017Z,-4.7
2018-12-21T01:55:06.912Z,-4.7
2018-12-21T01:55:56.598Z,-4.7
2018-12-21T01:56:46.929Z,-4.7
2018-12-21T01:57:37.095Z,-4.7
2018-12-21T01:58:26.775Z,-4.7
2018-12-21T01:59:17.109Z,-4.7
2018-12-21T02:00:07.165Z,-4.7
2018-12-21T02:00:57.234Z,-4.7
2018-12-21T02:01:47.267Z,-4.7
2018-12-21T02:02:37.052Z,-4.7
2018-12-21T02:03:26.830Z,-4.7
2018-12-21T02:04:17.452Z,-4.7
2018-12-21T02:05:07.512Z,-4.7
2018-12-21T02:05:57.542Z,-4.7
2018-12-21T02:06:47.667Z,-4.7
2018-12-21T02:07:37.679Z,-4.7
2018-12-21T02:08:27.732Z,-4.7
2018-12-21T02:09:17.507Z,-4.7
2018-12-21T02:10:07.854Z,-4.7
2018-12-21T02:10:57.674Z,-4.7
2018-12-21T02:11:47.679Z,-4.7
2018-12-21T02:12:37.742Z,-4.7
2018-12-21T02:13:28.094Z,-4.7
2018-12-21T02:14:18.122Z,-4.7
2018-12-21T02:15:07.644Z,-4.7
2018-12-21T02:15:58.247Z,-4.7
2018-12-21T02:16:48.023Z,-4.7
2018-12-21T02:17:38.079Z,-4.7
2018-12-21T02:18:28.137Z,-4.7
2018-12-21T02:19:18.469Z,-4.7
2018-12-21T02:20:08.244Z,-4.7
2018-12-21T02:20:58.834Z,-4.7
2018-12-21T02:21:57.249Z,-4.6
2018-12-21T02:22:38.423Z,-4.7
2018-12-21T02:23:28.492Z,-4.7
2018-12-21T02:24:18.797Z,-4.7
2018-12-21T02:25:08.580Z,-4.7
2018-12-21T02:25:58.619Z,-4.7
2018-12-21T02:26:49.018Z,-4.7
2018-12-21T02:27:39.039Z,-4.7
2018-12-21T02:28:29.091Z,-4.7
2018-12-21T02:29:19.203Z,-4.7
2018-12-21T02:30:09.222Z,-4.7
2018-12-21T02:30:59.278Z,-4.7
2018-12-21T02:31:49.181Z,-4.7
2018-12-21T02:32:39.121Z,-4.7
2018-12-21T02:33:29.327Z,-4.7
2018-12-21T02:34:19.223Z,-4.7
2018-12-21T02:35:09.545Z,-4.7
2018-12-21T02:35:59.616Z,-4.8
2018-12-21T02:36:49.711Z,-4.8
2018-12-21T02:37:39.706Z,-4.7
2018-12-21T02:38:29.786Z,-4.8
2018-12-21T02:39:19.843Z,-4.8
2018-12-21T02:40:09.340Z,-4.8
2018-12-21T02:40:59.993Z,-4.8
2018-12-21T02:41:50.250Z,-4.8
2018-12-21T02:42:40.058Z,-4.8
2018-12-21T02:43:30.242Z,-4.8
2018-12-21T02:44:19.618Z,-4.8
2018-12-21T02:45:10.241Z,-4.8
2018-12-21T02:46:00.334Z,-4.8
2018-12-21T02:46:50.071Z,-4.8
2018-12-21T02:47:40.392Z,-4.8
2018-12-21T02:48:30.702Z,-4.8
2018-12-21T02:49:19.988Z,-4.8
2018-12-21T02:50:10.410Z,-4.8
2018-12-21T02:51:00.378Z,-4.8
2018-12-21T02:51:50.933Z,-4.8
2018-12-21T02:52:40.730Z,-4.8
2018-12-21T02:53:30.247Z,-4.8
2018-12-21T02:54:20.634Z,-4.8
2018-12-21T02:55:10.916Z,-4.8
2018-12-21T02:56:00.703Z,-4.8
2018-12-21T02:56:50.990Z,-4.8
2018-12-21T02:57:40.824Z,-4.8
2018-12-21T02:58:31.171Z,-4.8
2018-12-21T02:59:21.215Z,-4.8
2018-12-21T03:00:11.247Z,-4.8
2018-12-21T03:01:01.445Z,-4.8
2018-12-21T03:01:51.384Z,-4.8
2018-12-21T03:02:41.146Z,-4.8
2018-12-21T03:03:30.912Z,-4.8
2018-12-21T03:04:21.255Z,-4.8
2018-12-21T03:05:11.897Z,-4.8
2018-12-21T03:06:01.497Z,-4.8
2018-12-21T03:06:51.712Z,-4.8
2018-12-21T03:07:41.769Z,-4.8
2018-12-21T03:08:31.539Z,-4.8
2018-12-21T03:09:21.872Z,-4.8
2018-12-21T03:10:11.982Z,-4.8
2018-12-21T03:11:02.086Z,-4.8
2018-12-21T03:11:52.041Z,-4.8
2018-12-21T03:12:42.107Z,-4.8
2018-12-21T03:13:32.166Z,-4.8
2018-12-21T03:14:22.455Z,-4.8
2018-12-21T03:15:12.239Z,-4.8
2018-12-21T03:16:02.331Z,-4.8
2018-12-21T03:16:52.388Z,-4.8
2018-12-21T03:17:42.461Z,-4.7
2018-12-21T03:18:32.493Z,-4.7
2018-12-21T03:19:22.572Z,-4.8
2018-12-21T03:20:12.613Z,-4.7
2018-12-21T03:21:02.796Z,-4.7
2018-12-21T03:21:52.455Z,-4.7
2018-12-21T03:22:42.908Z,-4.7
2018-12-21T03:23:33.432Z,-4.8
2018-12-21T03:24:22.358Z,-4.7
2018-12-21T03:25:12.731Z,-4.7
2018-12-21T03:26:03.121Z,-4.7
2018-12-21T03:26:53.075Z,-4.7
2018-12-21T03:27:43.123Z,-4.7
2018-12-21T03:28:33.473Z,-4.7
2018-12-21T03:29:23.244Z,-4.7
2018-12-21T03:30:13.294Z,-4.7
2018-12-21T03:31:03.258Z,-4.7
2018-12-21T03:31:53.429Z,-4.7
2018-12-21T03:32:43.239Z,-4.7
2018-12-21T03:33:33.245Z,-4.7
2018-12-21T03:34:23.616Z,-4.6
2018-12-21T03:35:13.654Z,-4.6
2018-12-21T03:36:03.761Z,-4.6
2018-12-21T03:36:53.744Z,-4.6
2018-12-21T03:37:43.946Z,-4.6
2018-12-21T03:38:33.860Z,-4.6
2018-12-21T03:39:24.235Z,-4.6
2018-12-21T03:40:14.287Z,-4.6
2018-12-21T03:41:04.032Z,-4.6
2018-12-21T03:41:54.095Z,-4.6
2018-12-21T03:42:44.147Z,-4.6
2018-12-21T03:43:34.189Z,-4.6
2018-12-21T03:44:23.982Z,-4.6
2018-12-21T03:45:14.023Z,-4.6
2018-12-21T03:46:04.367Z,-4.6
2018-12-21T03:46:54.422Z,-4.6
2018-12-21T03:47:44.479Z,-4.6
2018-12-21T03:48:34.553Z,-4.6
2018-12-21T03:49:24.601Z,-4.6
2018-12-21T03:50:14.112Z,-4.6
2018-12-21T03:51:04.697Z,-4.6
2018-12-21T03:51:54.507Z,-4.6
2018-12-21T03:52:44.886Z,-4.6
2018-12-21T03:53:34.609Z,-4.6
2018-12-21T03:54:24.659Z,-4.6
2018-12-21T03:55:15.173Z,-4.6
2018-12-21T03:56:05.031Z,-4.6
2018-12-21T03:56:54.541Z,-4.6
2018-12-21T03:57:44.628Z,-4.6
2018-12-21T03:58:34.970Z,-4.6
2018-12-21T03:59:25.284Z,-4.6
2018-12-21T04:00:15.474Z,-4.6
2018-12-21T04:01:05.405Z,-4.6
2018-12-21T04:01:55.502Z,-4.6
2018-12-21T04:02:45.516Z,-4.6
2018-12-21T04:03:35.291Z,-4.6
2018-12-21T04:04:25.619Z,-4.6
2018-12-21T04:05:15.393Z,-4.6
2018-12-21T04:06:05.719Z,-4.6
2018-12-21T04:06:55.805Z,-4.6
2018-12-21T04:07:45.289Z,-4.6
2018-12-21T04:08:35.451Z,-4.6
2018-12-21T04:09:25.693Z,-4.6
2018-12-21T04:10:15.761Z,-4.6
2018-12-21T04:11:05.878Z,-4.6
2018-12-21T04:11:56.134Z,-4.6
2018-12-21T04:12:45.897Z,-4.6
2018-12-21T04:13:36.254Z,-4.6
2018-12-21T04:14:26.293Z,-4.6
2018-12-21T04:15:16.346Z,-4.6
2018-12-21T04:16:06.181Z,-4.6
2018-12-21T04:16:56.491Z,-4.6
2018-12-21T04:17:46.671Z,-4.6
2018-12-21T04:18:36.585Z,-4.6
2018-12-21T04:19:26.650Z,-4.6
2018-12-21T04:20:16.167Z,-4.6
2018-12-21T04:21:06.794Z,-4.6
2018-12-21T04:21:56.803Z,-4.6
2018-12-21T04:22:46.578Z,-4.6
2018-12-21T04:23:36.655Z,-4.6
2018-12-21T04:24:27.232Z,-4.6
2018-12-21T04:25:17.384Z,-4.6
2018-12-21T04:26:07.106Z,-4.6
2018-12-21T04:26:57.392Z,-4.6
2018-12-21T04:27:47.221Z,-4.6
2018-12-21T04:28:36.700Z,-4.6
2018-12-21T04:29:27.335Z,-4.6
2018-12-21T04:30:17.696Z,-4.6
2018-12-21T04:31:07.155Z,-4.6
2018-12-21T04:31:57.538Z,-4.6
2018-12-21T04:32:47.557Z,-4.5
2018-12-21T04:33:37.599Z,-4.5
2018-12-21T04:34:27.680Z,-4.5
2018-12-21T04:35:17.728Z,-4.5
2018-12-21T04:36:07.775Z,-4.5
2018-12-21T04:36:57.801Z,-4.5
2018-12-21T04:37:47.879Z,-4.5
2018-12-21T04:38:37.696Z,-4.5
2018-12-21T04:39:27.758Z,-4.5
2018-12-21T04:40:17.859Z,-4.5
2018-12-21T04:41:07.831Z,-4.5
2018-12-21T04:41:58.165Z,-4.5
2018-12-21T04:42:47.951Z,-4.4
2018-12-21T04:43:38.006Z,-4.4
2018-12-21T04:44:28.352Z,-4.4
2018-12-21T05:01:48.382Z,-4.4
2018-12-21T05:02:52.810Z,-4.4
2018-12-21T05:03:43.052Z,-4.4
2018-12-21T05:04:24.987Z,-4.4
2018-12-21T05:05:14.963Z,-4.4
2018-12-21T05:06:05.524Z,-4.4
2018-12-21T05:06:56.142Z,-4.4
2018-12-21T05:07:45.457Z,-4.4
2018-12-21T05:08:35.779Z,-4.4
2018-12-21T09:16:16.272Z,2.5
2018-12-21T09:17:05.919Z,2.7
2018-12-21T09:17:55.701Z,2.8
2018-12-21T09:18:46.021Z,2.9
2018-12-21T09:19:35.804Z,3
2018-12-21T09:20:25.328Z,3.1
2018-12-21T09:21:16.821Z,3.2
2018-12-21T09:22:06.270Z,3.3
2018-12-21T09:22:55.743Z,3.3
2018-12-21T09:23:46.346Z,3.4
2018-12-21T09:24:36.416Z,3.5
2018-12-21T09:25:26.463Z,3.6
2018-12-21T09:26:16.520Z,3.6
2018-12-21T09:27:06.588Z,3.7
2018-12-21T09:27:56.361Z,3.8
2018-12-21T09:28:46.413Z,3.9
2018-12-21T09:29:36.475Z,3.9
2018-12-21T09:30:26.802Z,4.1
2018-12-21T09:31:16.868Z,4.1
2018-12-21T09:32:07.480Z,4.3
2018-12-21T09:32:56.417Z,4.4
2018-12-21T09:33:47.030Z,4.6
2018-12-21T09:34:37.088Z,4.8
2018-12-21T09:35:26.867Z,4.9
2018-12-21T09:36:16.930Z,5.1
2018-12-21T09:37:07.508Z,5.3
2018-12-21T09:37:57.315Z,5.4
2018-12-21T09:38:47.377Z,5.6
2018-12-21T09:39:37.141Z,5.8
2018-12-21T09:40:27.474Z,6
2018-12-21T09:41:17.534Z,6.2
2018-12-21T09:42:07.580Z,6.3
2018-12-21T09:42:57.374Z,6.5
2018-12-21T09:43:47.707Z,6.6
2018-12-21T09:44:37.485Z,6.8
2018-12-21T09:45:27.544Z,6.9
2018-12-21T09:46:17.864Z,6.9
2018-12-21T09:47:07.982Z,7.1
2018-12-21T09:47:57.719Z,7.2
2018-12-21T09:48:47.773Z,7.3
2018-12-21T09:49:38.102Z,7.4
2018-12-21T09:50:28.461Z,7.6
2018-12-21T09:51:18.212Z,7.7
2018-12-21T09:52:08.273Z,7.8
2018-12-21T09:52:57.782Z,7.9
2018-12-21T09:53:48.109Z,8
2018-12-21T09:54:38.436Z,8.1
2018-12-21T09:55:28.510Z,8.1
2018-12-21T09:56:17.998Z,8.2
2018-12-21T09:57:08.376Z,8.3
2018-12-21T09:57:58.723Z,8.3
2018-12-21T09:58:48.716Z,8.3
2018-12-21T09:59:38.495Z,8.4
2018-12-21T10:00:28.270Z,8.4
2018-12-21T10:01:18.615Z,8.4
2018-12-21T10:02:08.935Z,8.4
2018-12-21T10:02:58.457Z,8.4
2018-12-21T10:03:48.780Z,8.4
2018-12-21T10:04:38.850Z,8.4
2018-12-21T10:05:29.171Z,8.4
2018-12-21T10:06:19.310Z,8.3
2018-12-21T10:07:09.279Z,8.4
2018-12-21T10:07:59.062Z,8.3
2018-12-21T10:08:49.644Z,8.3
2018-12-21T10:09:39.450Z,8.3
2018-12-21T10:10:29.515Z,8.3
2018-12-21T10:11:19.287Z,8.3
2018-12-21T10:12:09.060Z,8.4
2018-12-21T10:12:59.400Z,8.4
2018-12-21T10:13:49.851Z,8.4
2018-12-21T10:14:39.782Z,8.4
2018-12-21T10:15:29.957Z,8.4
2018-12-21T10:16:19.904Z,8.4
2018-12-21T10:17:09.955Z,8.5
2018-12-21T10:18:00.318Z,8.5
2018-12-21T10:18:49.779Z,8.5
2018-12-21T10:19:39.837Z,8.6
2018-12-21T10:20:30.172Z,8.6
2018-12-21T10:21:20.229Z,8.6
2018-12-21T10:22:10.010Z,8.6
2018-12-21T10:23:00.337Z,8.6
2018-12-21T10:23:50.141Z,8.7
2018-12-21T10:24:40.462Z,8.8
2018-12-21T10:25:30.519Z,8.8
2018-12-21T10:26:20.684Z,8.9
2018-12-21T10:27:10.349Z,9
2018-12-21T10:28:00.421Z,9.1
2018-12-21T10:28:50.458Z,9.2
2018-12-21T10:29:40.792Z,9.3
2018-12-21T10:30:30.131Z,9.4
2018-12-21T10:31:20.621Z,9.5
2018-12-21T10:32:10.944Z,9.7
2018-12-21T10:33:01.016Z,9.8
2018-12-21T10:33:50.804Z,9.9
2018-12-21T10:34:41.136Z,10
2018-12-21T10:35:31.183Z,10.1
2018-12-21T10:36:21.059Z,10.1
2018-12-21T10:37:11.299Z,10.2
2018-12-21T10:38:01.353Z,10.3
2018-12-21T10:38:51.463Z,10.3
2018-12-21T10:39:41.207Z,10.3
2018-12-21T10:40:31.521Z,10.4
2018-12-21T10:41:21.663Z,10.4
2018-12-21T10:42:11.635Z,10.4
2018-12-21T10:43:01.421Z,10.4
2018-12-21T10:43:51.746Z,10.4
2018-12-21T10:44:41.846Z,10.4
2018-12-21T10:45:31.854Z,10.4
2018-12-21T10:46:21.638Z,10.4
2018-12-21T10:47:11.966Z,10.3
2018-12-21T10:48:01.919Z,10.3
2018-12-21T10:48:51.551Z,10.2
2018-12-21T10:49:42.166Z,10.2
2018-12-21T10:50:32.196Z,10.1
2018-12-21T10:51:21.976Z,10.1
2018-12-21T10:52:12.025Z,10
2018-12-21T10:53:02.193Z,9.9
2018-12-21T10:53:52.145Z,9.9
2018-12-21T10:54:42.524Z,9.9
2018-12-21T10:55:32.558Z,9.9
2018-12-21T10:56:22.317Z,9.8
2018-12-21T10:57:12.645Z,9.8
2018-12-21T10:58:02.418Z,9.8
2018-12-21T10:58:52.758Z,9.9
2018-12-21T10:59:45.587Z,9.9
2018-12-21T11:00:32.861Z,9.9
2018-12-21T11:01:22.930Z,10
2018-12-21T11:02:12.986Z,10.1
2018-12-21T11:03:02.480Z,10.1
2018-12-21T11:03:52.807Z,10.2
2018-12-21T11:04:42.862Z,10.3
2018-12-21T11:05:33.195Z,10.4
2018-12-21T11:06:22.972Z,10.4
2018-12-21T11:07:13.317Z,10.6
2018-12-21T11:08:03.100Z,10.7
2018-12-21T11:08:53.142Z,10.8
2018-12-21T11:09:43.474Z,10.9
2018-12-21T11:10:33.577Z,11
2018-12-21T11:11:23.587Z,11.1
2018-12-21T11:12:13.652Z,11.2
2018-12-21T11:13:03.703Z,11.3
2018-12-21T11:13:53.750Z,11.3
2018-12-21T11:14:43.807Z,11.3
2018-12-21T11:15:34.159Z,11.3
2018-12-21T11:16:23.911Z,11.3
2018-12-21T11:17:13.702Z,11.3
2018-12-21T11:18:03.494Z,11.3
2018-12-21T11:18:53.825Z,11.3
2018-12-21T11:19:44.158Z,11.3
2018-12-21T11:20:34.211Z,11.3
2018-12-21T11:21:24.294Z,11.3
2018-12-21T11:22:14.316Z,11.3
2018-12-21T11:23:04.116Z,11.3
2018-12-21T11:23:54.435Z,11.4
2018-12-21T11:24:44.203Z,11.4
2018-12-21T11:25:34.541Z,11.4
2018-12-21T11:26:24.596Z,11.5
2018-12-21T11:27:14.659Z,11.6
2018-12-21T11:28:04.438Z,11.6
2018-12-21T11:28:54.759Z,11.7
2018-12-21T11:29:44.826Z,11.8
2018-12-21T11:30:34.600Z,11.8
2018-12-21T11:31:24.936Z,11.8
2018-12-21T11:32:14.436Z,11.9
2018-12-21T11:33:05.063Z,11.9
2018-12-21T11:33:55.160Z,11.9
2018-12-21T11:34:45.168Z,12
2018-12-21T11:35:34.951Z,12
2018-12-21T11:36:25.271Z,12.1
2018-12-21T11:37:15.068Z,12.1
2018-12-21T11:38:05.119Z,12.1
2018-12-21T11:38:55.408Z,12.1
2018-12-21T11:39:45.506Z,12.3
2018-12-21T11:40:35.571Z,12.3
2018-12-21T11:41:25.616Z,12.3
2018-12-21T11:42:15.670Z,12.4
2018-12-21T11:43:05.733Z,12.4
2018-12-21T11:43:55.566Z,12.4
2018-12-21T11:44:45.836Z,12.5
2018-12-21T11:45:35.905Z,12.6
2018-12-21T11:46:25.665Z,12.6
2018-12-21T11:47:16.003Z,12.6
2018-12-21T11:48:05.790Z,12.7
2018-12-21T11:48:56.443Z,12.8
2018-12-21T11:49:45.909Z,12.8
2018-12-21T11:50:36.227Z,12.9
2018-12-21T11:51:25.738Z,12.9
2018-12-21T11:52:16.343Z,12.9
2018-12-21T11:53:06.123Z,12.9
2018-12-21T11:53:56.708Z,13
2018-12-21T11:54:46.273Z,13
2018-12-21T11:55:36.291Z,13
2018-12-21T11:56:26.628Z,13
2018-12-21T11:57:16.675Z,13.1
2018-12-21T11:58:06.465Z,13
2018-12-21T11:58:56.796Z,13
2018-12-21T11:59:47.213Z,13
2018-12-21T12:00:37.043Z,12.9
2018-12-21T12:01:26.452Z,12.9
2018-12-21T12:02:21.911Z,12.9
2018-12-21T12:03:06.800Z,12.9
2018-12-21T12:03:57.135Z,12.9
2018-12-21T12:04:47.194Z,12.9
2018-12-21T12:05:37.246Z,12.8
2018-12-21T12:06:27.032Z,12.8
2018-12-21T12:07:17.358Z,12.8
2018-12-21T12:08:07.141Z,12.8
2018-12-21T12:09:05.802Z,12.8
2018-12-21T12:09:47.524Z,12.8
2018-12-21T12:10:37.599Z,12.7
2018-12-21T12:11:27.644Z,12.7
2018-12-21T12:12:17.697Z,12.7
2018-12-21T12:13:07.757Z,12.6
2018-12-21T12:13:57.529Z,12.6
2018-12-21T12:14:47.861Z,12.6
2018-12-21T12:15:37.929Z,12.6
2018-12-21T12:16:27.704Z,12.6
2018-12-21T12:17:18.031Z,12.5
2018-12-21T12:18:07.813Z,12.5
2018-12-21T12:18:57.586Z,12.4
2018-12-21T12:19:48.198Z,12.4
2018-12-21T12:20:38.261Z,12.4
2018-12-21T12:21:28.088Z,12.4
2018-12-21T12:22:18.090Z,12.4
2018-12-21T12:23:08.433Z,12.4
2018-12-21T12:23:58.477Z,12.3
2018-12-21T12:24:57.193Z,12.3
2018-12-21T12:25:38.599Z,12.3
2018-12-21T12:26:28.623Z,12.3
2018-12-21T12:27:18.817Z,12.3
2018-12-21T12:28:08.758Z,12.2
2018-12-21T12:28:58.272Z,12.2
2018-12-21T12:29:48.875Z,12.1
2018-12-21T12:30:38.935Z,12
2018-12-21T12:31:28.717Z,11.9
2018-12-21T12:32:19.049Z,11.9
2018-12-21T12:33:09.107Z,11.8
2018-12-21T12:33:59.255Z,11.8
2018-12-21T12:34:49.207Z,11.7
2018-12-21T12:35:39.270Z,11.6
2018-12-21T12:36:29.053Z,11.6
2018-12-21T12:37:19.099Z,11.5
2018-12-21T12:38:09.697Z,11.4
2018-12-21T12:38:59.500Z,11.4
2018-12-21T12:39:49.561Z,11.3
2018-12-21T12:40:39.610Z,11.3
2018-12-21T12:41:29.667Z,11.2
2018-12-21T12:42:19.719Z,11.1
2018-12-21T12:43:10.029Z,11
2018-12-21T12:43:59.555Z,10.9
2018-12-21T12:44:49.899Z,10.8
2018-12-21T12:45:39.674Z,10.8
2018-12-21T12:46:29.721Z,10.7
2018-12-21T12:47:20.027Z,10.6
2018-12-21T12:48:09.961Z,10.5
2018-12-21T12:48:59.624Z,10.4
2018-12-21T12:49:50.224Z,10.3
2018-12-21T12:50:40.282Z,10.2
2018-12-21T12:51:30.074Z,10.1
2018-12-21T12:52:20.401Z,10
2018-12-21T12:53:10.187Z,9.8
2018-12-21T12:54:00.508Z,9.8
2018-12-21T12:54:50.568Z,9.6
2018-12-21T12:55:40.351Z,9.5
2018-12-21T12:56:30.754Z,9.4
2018-12-21T12:57:20.464Z,9.3
2018-12-21T12:58:10.521Z,9.2
2018-12-21T12:59:00.846Z,9.1
2018-12-21T12:59:50.643Z,9
2018-12-21T13:00:41.033Z,8.9
2018-12-21T13:01:31.032Z,8.8
2018-12-21T13:02:21.073Z,8.8
2018-12-21T13:03:10.633Z,8.6
2018-12-21T13:04:01.195Z,8.6
2018-12-21T13:04:51.493Z,8.5
2018-12-21T13:05:41.021Z,8.4
2018-12-21T13:06:31.353Z,8.4
2018-12-21T13:07:21.140Z,8.3
2018-12-21T13:08:10.921Z,8.2
2018-12-21T13:09:01.241Z,8.1
2018-12-21T13:09:51.575Z,8.1
2018-12-21T13:10:41.633Z,8
2018-12-21T13:11:31.188Z,7.9
2018-12-21T13:12:21.758Z,7.9
2018-12-21T13:13:11.812Z,7.8
2018-12-21T13:14:01.590Z,7.8
2018-12-21T13:14:51.635Z,7.7
2018-12-21T13:15:41.975Z,7.7
2018-12-21T13:16:32.196Z,7.6
2018-12-21T13:17:22.090Z,7.5
2018-12-21T13:18:11.867Z,7.4
2018-12-21T13:19:02.244Z,7.4
2018-12-21T13:19:52.262Z,7.4
2018-12-21T13:20:42.310Z,7.3
2018-12-21T13:21:32.079Z,7.2
2018-12-21T13:22:22.420Z,7.1
2018-12-21T13:23:12.482Z,7.1
2018-12-21T13:24:02.531Z,7.1
2018-12-21T13:24:52.620Z,7
2018-12-21T13:25:42.644Z,6.9
2018-12-21T13:26:32.705Z,6.9
2018-12-21T13:27:22.767Z,6.8
2018-12-21T13:28:12.535Z,6.8
2018-12-21T13:29:02.307Z,6.7
2018-12-21T13:29:52.934Z,6.6
2018-12-21T13:30:42.725Z,6.6
2018-12-21T13:31:32.772Z,6.5
2018-12-21T13:32:23.097Z,6.4
2018-12-21T13:33:12.894Z,6.3
2018-12-21T13:34:03.225Z,6.3
2018-12-21T13:34:53.259Z,6.2
2018-12-21T13:35:43.377Z,6.2
2018-12-21T13:36:33.097Z,6.1
2018-12-21T13:37:23.434Z,6
2018-12-21T13:38:13.484Z,5.9
2018-12-21T13:39:03.847Z,5.9
2018-12-21T13:39:53.324Z,5.8
2018-12-21T13:40:43.654Z,5.8
2018-12-21T13:41:33.429Z,5.7
2018-12-21T13:42:23.771Z,5.6
2018-12-21T13:43:13.826Z,5.6
2018-12-21T13:44:04.156Z,5.5
2018-12-21T13:44:53.653Z,5.4
2018-12-21T13:45:43.966Z,5.4
2018-12-21T13:46:33.776Z,5.3
2018-12-21T13:47:23.831Z,5.3
2018-12-21T13:48:14.153Z,5.2
2018-12-21T13:49:04.461Z,5.1
2018-12-21T13:49:54.394Z,5.1
2018-12-21T13:50:44.296Z,5
2018-12-21T13:51:33.558Z,4.9
2018-12-21T13:52:24.451Z,4.9
2018-12-21T13:53:14.218Z,4.9
2018-12-21T13:54:04.581Z,4.8
2018-12-21T13:54:54.605Z,4.8
2018-12-21T13:55:44.728Z,4.8
2018-12-21T13:56:34.173Z,4.7
2018-12-21T13:57:24.786Z,4.7
2018-12-21T13:58:14.645Z,4.7
2018-12-21T14:15:04.544Z,3.9
2018-12-21T14:15:54.574Z,3.8
2018-12-21T14:16:44.352Z,3.8
2018-12-21T14:17:34.139Z,3.8
2018-12-21T14:18:24.733Z,3.7
2018-12-21T14:19:14.799Z,3.7
2018-12-21T14:20:04.869Z,3.6
2018-12-21T14:20:54.898Z,3.6
2018-12-21T14:21:44.675Z,3.6
2018-12-21T14:22:35.019Z,3.5
2018-12-21T14:23:24.518Z,3.4
2018-12-21T14:24:15.131Z,3.4
2018-12-21T14:25:04.916Z,3.4
2018-12-21T14:25:55.236Z,3.4
2018-12-21T14:26:45.298Z,3.3
2018-12-21T14:27:35.348Z,3.3
2018-12-21T14:28:25.233Z,3.2
2018-12-21T14:29:15.771Z,3.1
2018-12-21T14:30:05.250Z,3.1
2018-12-21T14:30:55.581Z,3.1
2018-12-21T14:31:45.645Z,3
2018-12-21T14:32:35.531Z,2.9
2018-12-21T14:33:25.751Z,2.9
2018-12-21T14:34:15.803Z,2.8
2018-12-21T14:35:05.575Z,2.8
2018-12-21T14:35:55.383Z,2.7
2018-12-21T14:36:45.975Z,2.7
2018-12-21T14:37:36.035Z,2.6
2018-12-21T14:38:26.085Z,2.6
2018-12-21T14:39:15.862Z,2.4
2018-12-21T14:40:06.195Z,2.4
2018-12-21T14:40:55.975Z,2.4
2018-12-21T14:41:46.326Z,2.3
2018-12-21T14:42:36.363Z,2.3
2018-12-21T14:43:26.422Z,2.2
2018-12-21T14:44:16.477Z,2.1
2018-12-21T14:45:06.540Z,2.1
2018-12-21T14:45:56.314Z,2
2018-12-21T14:46:46.367Z,1.9
2018-12-21T14:47:36.443Z,1.9
2018-12-21T14:48:26.489Z,1.9
2018-12-21T14:49:16.537Z,1.8
2018-12-21T14:50:06.890Z,1.8
2018-12-21T14:50:56.649Z,1.7
2018-12-21T14:51:46.992Z,1.6
2018-12-21T14:52:36.779Z,1.6
2018-12-21T14:53:27.155Z,1.5
2018-12-21T14:54:17.152Z,1.5
2018-12-21T14:55:06.929Z,1.4
2018-12-21T14:55:56.714Z,1.4
2018-12-21T14:56:47.049Z,1.3
2018-12-21T14:57:36.929Z,1.3
2018-12-21T14:58:26.879Z,1.2
2018-12-21T14:59:18.740Z,1.2
2018-12-21T15:00:08.154Z,1.1
2018-12-21T15:00:58.517Z,1.1
2018-12-21T15:01:48.889Z,1
2018-12-21T15:02:37.426Z,1
2018-12-21T15:03:27.864Z,0.9
2018-12-21T15:04:18.134Z,0.9
2018-12-21T15:05:07.722Z,0.8
2018-12-21T15:05:57.385Z,0.8
2018-12-21T15:06:48.004Z,0.8
2018-12-21T15:07:37.789Z,0.7
2018-12-21T15:08:27.844Z,0.6
2018-12-21T15:09:18.426Z,0.6
2018-12-21T15:10:08.232Z,0.6
2018-12-21T15:10:58.271Z,0.6
2018-12-21T15:11:48.336Z,0.5
2018-12-21T15:12:38.391Z,0.4
2018-12-21T15:13:28.171Z,0.4
2018-12-21T15:14:18.223Z,0.4
2018-12-21T15:15:08.614Z,0.4
2018-12-21T15:15:58.343Z,0.3
2018-12-21T15:16:48.669Z,0.3
2018-12-21T15:17:38.736Z,0.3
2018-12-21T15:18:28.506Z,0.2
2018-12-21T15:19:18.831Z,0.2
2018-12-21T15:20:08.893Z,0.1
2018-12-21T15:20:59.003Z,0.1
2018-12-21T15:21:48.995Z,0.1
2018-12-21T15:22:38.777Z,0.1
2018-12-21T15:23:29.118Z,0
2018-12-21T15:24:18.634Z,0
2018-12-21T15:25:08.958Z,-0.1
2018-12-21T15:25:59.280Z,-0.1
2018-12-21T15:26:49.060Z,-0.1
2018-12-21T15:27:39.393Z,-0.1
2018-12-21T15:28:29.450Z,-0.2
2018-12-21T15:29:19.241Z,-0.2
2018-12-21T15:30:09.551Z,-0.3
2018-12-21T15:30:59.345Z,-0.3
2018-12-21T15:31:49.677Z,-0.3
2018-12-21T15:32:39.460Z,-0.3
2018-12-21T15:33:29.520Z,-0.3
2018-12-21T15:34:19.563Z,-0.4
2018-12-21T15:35:09.912Z,-0.4
2018-12-21T15:35:59.673Z,-0.4
2018-12-21T15:36:49.736Z,-0.4
2018-12-21T15:37:39.792Z,-0.4
2018-12-21T15:38:29.935Z,-0.4
2018-12-21T15:39:20.195Z,-0.5
2018-12-21T15:40:10.242Z,-0.5
2018-12-21T15:41:00.297Z,-0.5
2018-12-21T15:41:50.344Z,-0.6
2018-12-21T15:42:39.844Z,-0.6
2018-12-21T15:43:30.457Z,-0.6
2018-12-21T15:44:20.252Z,-0.6
2018-12-21T15:45:10.292Z,-0.6
2018-12-21T15:46:00.469Z,-0.7
2018-12-21T15:46:50.409Z,-0.8
2018-12-21T15:47:40.464Z,-0.8
2018-12-21T15:48:30.799Z,-0.8
2018-12-21T15:49:20.857Z,-0.8
2018-12-21T15:50:10.644Z,-0.8
2018-12-21T15:51:00.771Z,-0.9
2018-12-21T15:51:51.232Z,-0.9
2018-12-21T15:55:10.976Z,-1
2018-12-21T15:56:01.284Z,-1.1
2018-12-21T15:56:51.364Z,-1.1
2018-12-21T15:57:41.139Z,-1.1
2018-12-21T15:58:31.477Z,-1.1
2018-12-21T15:59:20.986Z,-1.1
2018-12-21T16:00:11.313Z,-1.2
2018-12-21T16:01:01.954Z,-1.2
2018-12-21T16:01:51.696Z,-1.2
2018-12-21T16:02:41.766Z,-1.3
2018-12-21T16:03:32.063Z,-1.3
2018-12-21T16:04:21.321Z,-1.3
2018-12-21T16:05:11.926Z,-1.3
2018-12-21T16:06:01.981Z,-1.3
2018-12-21T16:06:52.033Z,-1.3
2018-12-21T16:07:42.354Z,-1.4
2018-12-21T16:08:32.158Z,-1.4
2018-12-21T16:09:22.208Z,-1.4
2018-12-21T16:10:12.263Z,-1.4
2018-12-21T16:11:02.323Z,-1.4
2018-12-21T16:11:52.371Z,-1.4
2018-12-21T16:12:42.435Z,-1.5
2018-12-21T16:13:32.209Z,-1.5
2018-12-21T16:14:22.539Z,-1.5
2018-12-21T16:15:12.416Z,-1.6
2018-12-21T16:16:02.651Z,-1.6
2018-12-21T16:16:52.686Z,-1.6
2018-12-21T16:17:42.782Z,-1.6
2018-12-21T16:18:32.551Z,-1.6
2018-12-21T16:19:22.336Z,-1.6
2018-12-21T16:20:12.535Z,-1.6
2018-12-21T16:21:02.995Z,-1.7
2018-12-21T16:21:52.503Z,-1.7
2018-12-21T16:22:44.018Z,-1.8
2018-12-21T16:23:33.277Z,-1.8
2018-12-21T16:24:23.230Z,-1.8
2018-12-21T16:25:13.280Z,-1.8
2018-12-21T16:26:05.765Z,-1.8
2018-12-21T16:26:53.647Z,-1.8